sensor_id;sensor_type;location;lat;lon;timestamp;pressure;altitude;pressure_sealevel;temperature;humidity
9774;BME280;4926;42.670;23.316;2023-04-26T00:01:12;93623.81;;;11.28;100.00
9774;BME280;4926;42.670;23.316;2023-04-26T00:03:39;93627.06;;;10.82;100.00
9774;BME280;4926;42.670;23.316;2023-04-26T00:06:05;93617.44;;;10.56;100.00
9774;BME280;4926;42.670;23.316;2023-04-26T00:08:34;93605.50;;;10.45;100.00
9774;BME280;4926;42.670;23.316;2023-04-26T00:11:00;93613.34;;;10.50;100.00
9774;BME280;4926;42.670;23.316;2023-04-26T00:13:28;93606.56;;;10.35;100.00
9774;BME280;4926;42.670;23.316;2023-04-26T00:15:56;93600.75;;;10.25;100.00
9774;BME280;4926;42.670;23.316;2023-04-26T00:18:25;93590.66;;;10.13;100.00
9774;BME280;4926;42.670;23.316;2023-04-26T00:20:52;93592.19;;;10.05;100.00
9774;BME280;4926;42.670;23.316;2023-04-26T00:23:19;93602.25;;;10.08;100.00
9774;BME280;4926;42.670;23.316;2023-04-26T00:25:47;93600.72;;;9.94;100.00
9774;BME280;4926;42.670;23.316;2023-04-26T00:28:16;93594.66;;;9.71;100.00
9774;BME280;4926;42.670;23.316;2023-04-26T00:30:49;93593.25;;;9.65;100.00
9774;BME280;4926;42.670;23.316;2023-04-26T00:33:22;93586.25;;;9.47;100.00
9774;BME280;4926;42.670;23.316;2023-04-26T00:35:48;93583.00;;;9.28;100.00
9774;BME280;4926;42.670;23.316;2023-04-26T00:38:18;93585.16;;;9.26;100.00
9774;BME280;4926;42.670;23.316;2023-04-26T00:40:44;93590.97;;;9.28;100.00
9774;BME280;4926;42.670;23.316;2023-04-26T00:43:11;93579.78;;;9.40;100.00
9774;BME280;4926;42.670;23.316;2023-04-26T00:45:41;93581.19;;;9.37;100.00
9774;BME280;4926;42.670;23.316;2023-04-26T00:48:09;93582.13;;;9.41;100.00
9774;BME280;4926;42.670;23.316;2023-04-26T00:50:37;93581.53;;;9.44;100.00
9774;BME280;4926;42.670;23.316;2023-04-26T00:53:04;93582.13;;;9.63;100.00
9774;BME280;4926;42.670;23.316;2023-04-26T00:55:32;93584.00;;;9.63;100.00
9774;BME280;4926;42.670;23.316;2023-04-26T00:57:58;93580.44;;;9.67;100.00
9774;BME280;4926;42.670;23.316;2023-04-26T01:00:25;93584.34;;;9.70;100.00
9774;BME280;4926;42.670;23.316;2023-04-26T01:02:55;93585.50;;;9.77;100.00
9774;BME280;4926;42.670;23.316;2023-04-26T01:05:23;93590.84;;;9.86;100.00
9774;BME280;4926;42.670;23.316;2023-04-26T01:07:51;93596.66;;;9.88;100.00
9774;BME280;4926;42.670;23.316;2023-04-26T01:10:18;93598.66;;;9.82;100.00
9774;BME280;4926;42.670;23.316;2023-04-26T01:12:45;93605.28;;;9.93;100.00
9774;BME280;4926;42.670;23.316;2023-04-26T01:15:12;93603.00;;;9.78;100.00
9774;BME280;4926;42.670;23.316;2023-04-26T01:17:39;93600.72;;;9.94;100.00
9774;BME280;4926;42.670;23.316;2023-04-26T01:20:08;93589.97;;;9.99;100.00
9774;BME280;4926;42.670;23.316;2023-04-26T01:22:37;93582.53;;;10.09;100.00
9774;BME280;4926;42.670;23.316;2023-04-26T01:25:05;93582.09;;;10.16;100.00
9774;BME280;4926;42.670;23.316;2023-04-26T01:27:33;93574.44;;;10.15;100.00
9774;BME280;4926;42.670;23.316;2023-04-26T01:30:00;93571.63;;;10.20;100.00
9774;BME280;4926;42.670;23.316;2023-04-26T01:32:27;93572.06;;;10.13;100.00
9774;BME280;4926;42.670;23.316;2023-04-26T01:34:56;93587.84;;;10.09;100.00
9774;BME280;4926;42.670;23.316;2023-04-26T01:37:44;93587.09;;;10.09;100.00
9774;BME280;4926;42.670;23.316;2023-04-26T01:40:11;93587.94;;;10.04;100.00
9774;BME280;4926;42.670;23.316;2023-04-26T01:42:38;93590.38;;;10.15;100.00
9774;BME280;4926;42.670;23.316;2023-04-26T01:45:06;93590.03;;;10.07;100.00
9774;BME280;4926;42.670;23.316;2023-04-26T01:47:33;93595.34;;;10.07;100.00
9774;BME280;4926;42.670;23.316;2023-04-26T01:50:02;93601.72;;;10.06;100.00
9774;BME280;4926;42.670;23.316;2023-04-26T01:52:32;93598.25;;;9.97;100.00
9774;BME280;4926;42.670;23.316;2023-04-26T01:55:03;93595.59;;;9.97;100.00
9774;BME280;4926;42.670;23.316;2023-04-26T01:57:33;93582.69;;;9.82;100.00
9774;BME280;4926;42.670;23.316;2023-04-26T02:00:03;93578.31;;;9.56;100.00
9774;BME280;4926;42.670;23.316;2023-04-26T02:02:30;93578.31;;;9.56;100.00
9774;BME280;4926;42.670;23.316;2023-04-26T02:04:56;93571.88;;;9.48;100.00
9774;BME280;4926;42.670;23.316;2023-04-26T02:07:23;93571.75;;;9.53;100.00
9774;BME280;4926;42.670;23.316;2023-04-26T02:09:50;93565.47;;;9.49;100.00
9774;BME280;4926;42.670;23.316;2023-04-26T02:12:18;93568.13;;;9.49;100.00
9774;BME280;4926;42.670;23.316;2023-04-26T02:14:44;93575.53;;;9.61;100.00
9774;BME280;4926;42.670;23.316;2023-04-26T02:17:11;93570.94;;;9.75;100.00
9774;BME280;4926;42.670;23.316;2023-04-26T02:19:38;93561.59;;;9.86;100.00
9774;BME280;4926;42.670;23.316;2023-04-26T02:22:07;93571.09;;;9.78;100.00
9774;BME280;4926;42.670;23.316;2023-04-26T02:24:34;93567.59;;;9.91;100.00
9774;BME280;4926;42.670;23.316;2023-04-26T02:27:00;93567.06;;;9.81;100.00
9774;BME280;4926;42.670;23.316;2023-04-26T02:29:29;93570.16;;;9.74;100.00
9774;BME280;4926;42.670;23.316;2023-04-26T02:31:56;93566.66;;;9.65;100.00
9774;BME280;4926;42.670;23.316;2023-04-26T02:34:25;93565.22;;;9.59;100.00
9774;BME280;4926;42.670;23.316;2023-04-26T02:36:52;93558.66;;;9.35;100.00
9774;BME280;4926;42.670;23.316;2023-04-26T02:39:19;93574.38;;;9.23;100.00
9774;BME280;4926;42.670;23.316;2023-04-26T02:41:46;93575.44;;;8.99;100.00
9774;BME280;4926;42.670;23.316;2023-04-26T02:44:13;93572.94;;;8.81;100.00
9774;BME280;4926;42.670;23.316;2023-04-26T02:46:41;93570.94;;;8.51;100.00
9774;BME280;4926;42.670;23.316;2023-04-26T02:49:07;93568.88;;;8.48;100.00
9774;BME280;4926;42.670;23.316;2023-04-26T02:51:34;93559.47;;;8.42;100.00
9774;BME280;4926;42.670;23.316;2023-04-26T02:54:01;93561.44;;;8.36;100.00
9774;BME280;4926;42.670;23.316;2023-04-26T02:56:28;93550.22;;;8.53;100.00
9774;BME280;4926;42.670;23.316;2023-04-26T02:58:55;93549.19;;;8.76;100.00
9774;BME280;4926;42.670;23.316;2023-04-26T03:01:21;93546.06;;;8.96;100.00
9774;BME280;4926;42.670;23.316;2023-04-26T03:03:53;93544.75;;;9.07;100.00
9774;BME280;4926;42.670;23.316;2023-04-26T03:06:21;93550.53;;;9.09;100.00
9774;BME280;4926;42.670;23.316;2023-04-26T03:08:49;93548.84;;;9.13;100.00
9774;BME280;4926;42.670;23.316;2023-04-26T03:11:15;93555.22;;;9.12;100.00
9774;BME280;4926;42.670;23.316;2023-04-26T03:13:42;93556.47;;;8.92;100.00
9774;BME280;4926;42.670;23.316;2023-04-26T03:16:09;93556.03;;;8.77;100.00
9774;BME280;4926;42.670;23.316;2023-04-26T03:18:36;93552.25;;;8.69;100.00
9774;BME280;4926;42.670;23.316;2023-04-26T03:21:04;93557.63;;;8.78;100.00
9774;BME280;4926;42.670;23.316;2023-04-26T03:23:30;93546.78;;;8.88;100.00
9774;BME280;4926;42.670;23.316;2023-04-26T03:25:57;93548.13;;;8.99;100.00
9774;BME280;4926;42.670;23.316;2023-04-26T03:28:25;93547.03;;;9.00;100.00
9774;BME280;4926;42.670;23.316;2023-04-26T03:30:52;93551.59;;;9.08;100.00
9774;BME280;4926;42.670;23.316;2023-04-26T03:33:19;93552.28;;;8.91;100.00
9774;BME280;4926;42.670;23.316;2023-04-26T03:35:47;93552.97;;;8.83;100.00
9774;BME280;4926;42.670;23.316;2023-04-26T03:38:18;93555.63;;;8.83;100.00
9774;BME280;4926;42.670;23.316;2023-04-26T03:40:45;93554.94;;;8.91;100.00
9774;BME280;4926;42.670;23.316;2023-04-26T03:43:15;93549.25;;;8.84;100.00
9774;BME280;4926;42.670;23.316;2023-04-26T03:45:45;93559.78;;;8.76;100.00
9774;BME280;4926;42.670;23.316;2023-04-26T03:48:13;93569.41;;;8.72;100.00
9774;BME280;4926;42.670;23.316;2023-04-26T03:50:40;93564.59;;;8.74;100.00
9774;BME280;4926;42.670;23.316;2023-04-26T03:53:12;93564.06;;;8.85;100.00
9774;BME280;4926;42.670;23.316;2023-04-26T03:55:40;93567.16;;;9.01;100.00
9774;BME280;4926;42.670;23.316;2023-04-26T03:58:08;93568.75;;;9.02;100.00
9774;BME280;4926;42.670;23.316;2023-04-26T04:00:36;93571.22;;;9.21;100.00
9774;BME280;4926;42.670;23.316;2023-04-26T04:03:03;93573.09;;;9.42;100.00
9774;BME280;4926;42.670;23.316;2023-04-26T04:05:29;93583.69;;;9.64;100.00
9774;BME280;4926;42.670;23.316;2023-04-26T04:07:58;93581.38;;;9.71;100.00
9774;BME280;4926;42.670;23.316;2023-04-26T04:10:25;93576.59;;;9.82;100.00
9774;BME280;4926;42.670;23.316;2023-04-26T04:12:56;93579.28;;;9.90;100.00
9774;BME280;4926;42.670;23.316;2023-04-26T04:15:25;93591.38;;;9.96;100.00
9774;BME280;4926;42.670;23.316;2023-04-26T04:18:02;93589.53;;;10.05;100.00
9774;BME280;4926;42.670;23.316;2023-04-26T04:20:29;93587.25;;;10.13;100.00
9774;BME280;4926;42.670;23.316;2023-04-26T04:22:55;93600.25;;;10.23;100.00
9774;BME280;4926;42.670;23.316;2023-04-26T04:25:23;93595.28;;;10.30;100.00
9774;BME280;4926;42.670;23.316;2023-04-26T04:27:50;93586.06;;;10.36;100.00
9774;BME280;4926;42.670;23.316;2023-04-26T04:30:19;93601.75;;;10.46;100.00
9774;BME280;4926;42.670;23.316;2023-04-26T04:32:46;93602.25;;;10.56;100.00
9774;BME280;4926;42.670;23.316;2023-04-26T04:35:14;93609.47;;;10.64;100.00
9774;BME280;4926;42.670;23.316;2023-04-26T04:37:41;93589.63;;;10.79;100.00
9774;BME280;4926;42.670;23.316;2023-04-26T04:40:11;93597.63;;;10.87;100.00
9774;BME280;4926;42.670;23.316;2023-04-26T04:42:38;93601.72;;;11.02;100.00
9774;BME280;4926;42.670;23.316;2023-04-26T04:45:06;93603.09;;;10.91;100.00
9774;BME280;4926;42.670;23.316;2023-04-26T04:47:37;93598.72;;;10.95;100.00
9774;BME280;4926;42.670;23.316;2023-04-26T04:50:05;93602.78;;;11.01;100.00
9774;BME280;4926;42.670;23.316;2023-04-26T04:52:35;93612.22;;;11.07;100.00
9774;BME280;4926;42.670;23.316;2023-04-26T04:55:02;93608.59;;;11.11;100.00
9774;BME280;4926;42.670;23.316;2023-04-26T04:57:31;93611.56;;;11.10;100.00
9774;BME280;4926;42.670;23.316;2023-04-26T04:59:57;93609.41;;;11.20;100.00
9774;BME280;4926;42.670;23.316;2023-04-26T05:02:31;93610.34;;;11.33;100.00
9774;BME280;4926;42.670;23.316;2023-04-26T05:04:59;93605.00;;;11.33;100.00
9774;BME280;4926;42.670;23.316;2023-04-26T05:07:26;93595.28;;;11.37;100.00
9774;BME280;4926;42.670;23.316;2023-04-26T05:09:53;93603.13;;;11.42;100.00
9774;BME280;4926;42.670;23.316;2023-04-26T05:12:20;93601.22;;;11.51;100.00
9774;BME280;4926;42.670;23.316;2023-04-26T05:14:49;93601.09;;;11.56;100.00
9774;BME280;4926;42.670;23.316;2023-04-26T05:17:16;93601.84;;;11.65;100.00
9774;BME280;4926;42.670;23.316;2023-04-26T05:19:43;93604.97;;;11.76;100.00
9774;BME280;4926;42.670;23.316;2023-04-26T05:22:11;93608.09;;;11.86;100.00
9774;BME280;4926;42.670;23.316;2023-04-26T05:24:43;93609.38;;;11.80;100.00
9774;BME280;4926;42.670;23.316;2023-04-26T05:27:10;93610.94;;;11.73;100.00
9774;BME280;4926;42.670;23.316;2023-04-26T05:29:39;93612.81;;;11.72;100.00
9774;BME280;4926;42.670;23.316;2023-04-26T05:32:06;93616.13;;;11.78;100.00
9774;BME280;4926;42.670;23.316;2023-04-26T05:34:32;93620.00;;;11.97;100.00
9774;BME280;4926;42.670;23.316;2023-04-26T05:36:59;93613.41;;;12.03;100.00
9774;BME280;4926;42.670;23.316;2023-04-26T05:39:30;93610.88;;;11.98;100.00
9774;BME280;4926;42.670;23.316;2023-04-26T05:41:57;93618.75;;;12.03;100.00
9774;BME280;4926;42.670;23.316;2023-04-26T05:44:23;93622.78;;;12.09;100.00
9774;BME280;4926;42.670;23.316;2023-04-26T05:46:50;93629.34;;;12.20;100.00
9774;BME280;4926;42.670;23.316;2023-04-26T05:49:17;93628.72;;;12.23;100.00
9774;BME280;4926;42.670;23.316;2023-04-26T05:51:46;93631.63;;;12.39;100.00
9774;BME280;4926;42.670;23.316;2023-04-26T05:54:13;93636.59;;;12.49;100.00
9774;BME280;4926;42.670;23.316;2023-04-26T05:56:41;93637.31;;;12.67;100.00
9774;BME280;4926;42.670;23.316;2023-04-26T05:59:13;93634.69;;;12.58;100.00
9774;BME280;4926;42.670;23.316;2023-04-26T06:01:39;93634.66;;;12.67;100.00
9774;BME280;4926;42.670;23.316;2023-04-26T06:04:07;93631.00;;;12.80;100.00
9774;BME280;4926;42.670;23.316;2023-04-26T06:06:34;93634.78;;;12.79;98.22
9774;BME280;4926;42.670;23.316;2023-04-26T06:09:01;93641.38;;;12.73;98.55
9774;BME280;4926;42.670;23.316;2023-04-26T06:11:28;93633.47;;;12.85;97.93
9774;BME280;4926;42.670;23.316;2023-04-26T06:13:58;93635.88;;;13.07;97.27
9774;BME280;4926;42.670;23.316;2023-04-26T06:16:24;93620.56;;;13.16;95.47
9774;BME280;4926;42.670;23.316;2023-04-26T06:18:51;93627.84;;;13.07;95.46
9774;BME280;4926;42.670;23.316;2023-04-26T06:21:18;93624.41;;;13.06;95.74
9774;BME280;4926;42.670;23.316;2023-04-26T06:23:47;93632.91;;;13.29;95.26
9774;BME280;4926;42.670;23.316;2023-04-26T06:26:14;93635.38;;;13.34;92.90
9774;BME280;4926;42.670;23.316;2023-04-26T06:28:44;93626.25;;;13.35;94.33
9774;BME280;4926;42.670;23.316;2023-04-26T06:31:16;93633.19;;;13.36;93.09
9774;BME280;4926;42.670;23.316;2023-04-26T06:33:44;93630.03;;;13.34;93.27
9774;BME280;4926;42.670;23.316;2023-04-26T06:36:10;93640.78;;;13.05;92.02
9774;BME280;4926;42.670;23.316;2023-04-26T06:38:38;93634.41;;;12.89;89.08
9774;BME280;4926;42.670;23.316;2023-04-26T06:41:10;93629.16;;;12.72;86.30
9774;BME280;4926;42.670;23.316;2023-04-26T06:43:39;93631.06;;;12.63;85.06
9774;BME280;4926;42.670;23.316;2023-04-26T06:46:09;93637.41;;;12.50;83.17
9774;BME280;4926;42.670;23.316;2023-04-26T06:48:37;93631.63;;;12.39;83.67
9774;BME280;4926;42.670;23.316;2023-04-26T06:51:07;93642.38;;;12.22;86.70
9774;BME280;4926;42.670;23.316;2023-04-26T06:53:38;93638.41;;;12.37;85.92
9774;BME280;4926;42.670;23.316;2023-04-26T06:56:06;93642.56;;;12.55;83.47
9774;BME280;4926;42.670;23.316;2023-04-26T06:58:33;93641.38;;;12.44;81.44
9774;BME280;4926;42.670;23.316;2023-04-26T07:01:03;93636.88;;;12.65;82.19
9774;BME280;4926;42.670;23.316;2023-04-26T07:03:30;93640.06;;;12.87;82.07
9774;BME280;4926;42.670;23.316;2023-04-26T07:05:59;93644.63;;;12.87;81.35
9774;BME280;4926;42.670;23.316;2023-04-26T07:08:26;93648.41;;;12.86;81.37
9774;BME280;4926;42.670;23.316;2023-04-26T07:10:53;93650.16;;;12.82;81.97
9774;BME280;4926;42.670;23.316;2023-04-26T07:13:19;93645.09;;;12.89;82.13
9774;BME280;4926;42.670;23.316;2023-04-26T07:15:49;93643.97;;;12.90;81.82
9774;BME280;4926;42.670;23.316;2023-04-26T07:18:21;93648.22;;;12.91;82.21
9774;BME280;4926;42.670;23.316;2023-04-26T07:20:50;93640.72;;;13.13;81.15
9774;BME280;4926;42.670;23.316;2023-04-26T07:23:18;93632.78;;;13.46;78.15
9774;BME280;4926;42.670;23.316;2023-04-26T07:25:47;93614.88;;;13.79;76.26
9774;BME280;4926;42.670;23.316;2023-04-26T07:28:15;93629.16;;;13.83;75.73
9774;BME280;4926;42.670;23.316;2023-04-26T07:30:42;93630.34;;;14.06;74.49
9774;BME280;4926;42.670;23.316;2023-04-26T07:33:09;93611.19;;;14.16;70.78
9774;BME280;4926;42.670;23.316;2023-04-26T07:35:35;93623.69;;;14.24;69.82
9774;BME280;4926;42.670;23.316;2023-04-26T07:38:05;93624.25;;;14.18;67.88
9774;BME280;4926;42.670;23.316;2023-04-26T07:40:34;93620.53;;;14.10;68.25
9774;BME280;4926;42.670;23.316;2023-04-26T07:43:01;93629.00;;;14.00;67.85
9774;BME280;4926;42.670;23.316;2023-04-26T07:45:28;93633.81;;;13.74;68.07
9774;BME280;4926;42.670;23.316;2023-04-26T07:47:55;93646.72;;;13.72;68.20
9774;BME280;4926;42.670;23.316;2023-04-26T07:50:23;93640.59;;;13.51;67.87
9774;BME280;4926;42.670;23.316;2023-04-26T07:52:52;93630.56;;;13.48;67.09
9774;BME280;4926;42.670;23.316;2023-04-26T07:55:19;93629.63;;;13.44;66.58
9774;BME280;4926;42.670;23.316;2023-04-26T07:57:47;93637.72;;;13.77;64.93
9774;BME280;4926;42.670;23.316;2023-04-26T08:00:15;93624.00;;;13.78;63.74
9774;BME280;4926;42.670;23.316;2023-04-26T08:02:43;93632.88;;;13.70;65.16
9774;BME280;4926;42.670;23.316;2023-04-26T08:05:10;93637.47;;;13.70;65.65
9774;BME280;4926;42.670;23.316;2023-04-26T08:07:37;93641.44;;;13.96;65.54
9774;BME280;4926;42.670;23.316;2023-04-26T08:10:05;93636.72;;;14.14;65.10
9774;BME280;4926;42.670;23.316;2023-04-26T08:12:33;93633.88;;;13.98;64.01
9774;BME280;4926;42.670;23.316;2023-04-26T08:15:04;93635.09;;;13.68;65.62
9774;BME280;4926;42.670;23.316;2023-04-26T08:17:34;93633.09;;;13.98;65.20
9774;BME280;4926;42.670;23.316;2023-04-26T08:20:06;93643.41;;;14.08;65.10
9774;BME280;4926;42.670;23.316;2023-04-26T08:22:33;93633.44;;;14.29;63.86
9774;BME280;4926;42.670;23.316;2023-04-26T08:25:10;93645.53;;;14.14;63.74
9774;BME280;4926;42.670;23.316;2023-04-26T08:27:40;93644.94;;;14.41;64.80
9774;BME280;4926;42.670;23.316;2023-04-26T08:30:11;93628.69;;;14.71;62.62
9774;BME280;4926;42.670;23.316;2023-04-26T08:32:37;93634.72;;;14.68;63.27
9774;BME280;4926;42.670;23.316;2023-04-26T08:35:05;93642.94;;;14.38;62.79
9774;BME280;4926;42.670;23.316;2023-04-26T08:37:33;93644.63;;;14.10;64.20
9774;BME280;4926;42.670;23.316;2023-04-26T08:40:00;93637.75;;;14.21;63.56
9774;BME280;4926;42.670;23.316;2023-04-26T08:42:29;93635.34;;;14.28;63.13
9774;BME280;4926;42.670;23.316;2023-04-26T08:44:59;93634.69;;;14.43;62.95
9774;BME280;4926;42.670;23.316;2023-04-26T08:47:32;93640.41;;;14.66;62.47
9774;BME280;4926;42.670;23.316;2023-04-26T08:50:00;93636.06;;;14.74;62.13
9774;BME280;4926;42.670;23.316;2023-04-26T08:52:30;93636.50;;;14.76;61.22
9774;BME280;4926;42.670;23.316;2023-04-26T08:54:58;93641.19;;;14.91;61.90
9774;BME280;4926;42.670;23.316;2023-04-26T08:57:25;93626.69;;;14.92;59.98
9774;BME280;4926;42.670;23.316;2023-04-26T08:59:54;93633.16;;;14.67;60.46
9774;BME280;4926;42.670;23.316;2023-04-26T09:02:23;93635.16;;;14.57;60.13
9774;BME280;4926;42.670;23.316;2023-04-26T09:04:53;93642.09;;;14.59;60.93
9774;BME280;4926;42.670;23.316;2023-04-26T09:07:21;93639.19;;;14.64;60.50
9774;BME280;4926;42.670;23.316;2023-04-26T09:09:53;93640.31;;;14.75;60.83
9774;BME280;4926;42.670;23.316;2023-04-26T09:12:23;93642.88;;;14.83;60.84
9774;BME280;4926;42.670;23.316;2023-04-26T09:14:49;93639.06;;;14.96;59.29
9774;BME280;4926;42.670;23.316;2023-04-26T09:17:24;93632.28;;;14.99;59.30
9774;BME280;4926;42.670;23.316;2023-04-26T09:19:51;93644.31;;;14.81;59.30
9774;BME280;4926;42.670;23.316;2023-04-26T09:22:28;93640.75;;;14.65;59.68
9774;BME280;4926;42.670;23.316;2023-04-26T09:24:56;93641.75;;;14.96;59.61
9774;BME280;4926;42.670;23.316;2023-04-26T09:27:31;93632.94;;;15.08;58.87
9774;BME280;4926;42.670;23.316;2023-04-26T09:30:01;93628.91;;;15.02;58.09
9774;BME280;4926;42.670;23.316;2023-04-26T09:32:42;93635.59;;;15.20;57.86
9774;BME280;4926;42.670;23.316;2023-04-26T09:35:21;93634.25;;;15.14;57.43
9774;BME280;4926;42.670;23.316;2023-04-26T09:38:25;93617.72;;;15.36;56.40
9774;BME280;4926;42.670;23.316;2023-04-26T09:40:53;93627.03;;;15.66;56.46
9774;BME280;4926;42.670;23.316;2023-04-26T09:43:25;93615.88;;;15.52;55.93
9774;BME280;4926;42.670;23.316;2023-04-26T09:45:54;93607.50;;;15.53;55.97
9774;BME280;4926;42.670;23.316;2023-04-26T09:48:22;93610.66;;;15.83;55.53
9774;BME280;4926;42.670;23.316;2023-04-26T09:50:51;93596.00;;;15.81;55.46
9774;BME280;4926;42.670;23.316;2023-04-26T09:53:27;93608.00;;;15.99;55.14
9774;BME280;4926;42.670;23.316;2023-04-26T09:56:09;93602.28;;;16.00;54.71
9774;BME280;4926;42.670;23.316;2023-04-26T09:58:39;93589.88;;;16.23;53.57
9774;BME280;4926;42.670;23.316;2023-04-26T10:01:06;93588.44;;;16.57;52.72
9774;BME280;4926;42.670;23.316;2023-04-26T10:03:34;93583.13;;;16.76;52.12
9774;BME280;4926;42.670;23.316;2023-04-26T10:06:01;93563.44;;;16.88;50.93
9774;BME280;4926;42.670;23.316;2023-04-26T10:08:30;93557.16;;;16.99;49.92
9774;BME280;4926;42.670;23.316;2023-04-26T10:10:56;93553.81;;;16.87;49.64
9774;BME280;4926;42.670;23.316;2023-04-26T10:13:26;93560.84;;;16.44;50.68
9774;BME280;4926;42.670;23.316;2023-04-26T10:15:53;93563.31;;;16.49;50.22
9774;BME280;4926;42.670;23.316;2023-04-26T10:18:21;93553.16;;;16.58;49.72
9774;BME280;4926;42.670;23.316;2023-04-26T10:20:51;93551.50;;;16.69;49.83
9774;BME280;4926;42.670;23.316;2023-04-26T10:23:20;93555.81;;;16.58;49.21
9774;BME280;4926;42.670;23.316;2023-04-26T10:25:53;93547.78;;;16.58;48.99
9774;BME280;4926;42.670;23.316;2023-04-26T10:28:53;93553.50;;;16.57;49.14
9774;BME280;4926;42.670;23.316;2023-04-26T10:31:20;93554.44;;;16.64;49.41
9774;BME280;4926;42.670;23.316;2023-04-26T10:34:17;93549.63;;;16.54;48.71
9774;BME280;4926;42.670;23.316;2023-04-26T10:37:05;93562.75;;;16.28;48.89
9774;BME280;4926;42.670;23.316;2023-04-26T10:39:33;93551.88;;;16.52;48.45
9774;BME280;4926;42.670;23.316;2023-04-26T10:42:24;93541.19;;;16.40;48.06
9774;BME280;4926;42.670;23.316;2023-04-26T10:44:55;93548.81;;;16.23;48.47
9774;BME280;4926;42.670;23.316;2023-04-26T10:47:29;93546.38;;;16.18;48.55
9774;BME280;4926;42.670;23.316;2023-04-26T10:50:07;93541.59;;;16.11;48.23
9774;BME280;4926;42.670;23.316;2023-04-26T10:52:34;93539.41;;;16.01;48.04
9774;BME280;4926;42.670;23.316;2023-04-26T10:55:02;93534.84;;;16.02;48.02
9774;BME280;4926;42.670;23.316;2023-04-26T10:57:48;93539.16;;;16.22;48.04
9774;BME280;4926;42.670;23.316;2023-04-26T11:00:33;93543.59;;;15.99;48.08
9774;BME280;4926;42.670;23.316;2023-04-26T11:03:08;93536.13;;;15.92;47.47
9774;BME280;4926;42.670;23.316;2023-04-26T11:05:38;93537.84;;;15.85;47.28
9774;BME280;4926;42.670;23.316;2023-04-26T11:08:14;93534.63;;;15.79;47.39
9774;BME280;4926;42.670;23.316;2023-04-26T11:10:44;93541.72;;;15.87;48.09
9774;BME280;4926;42.670;23.316;2023-04-26T11:13:16;93537.16;;;16.03;47.78
9774;BME280;4926;42.670;23.316;2023-04-26T11:15:43;93528.25;;;15.99;47.15
9774;BME280;4926;42.670;23.316;2023-04-26T11:18:10;93535.69;;;15.90;47.35
9774;BME280;4926;42.670;23.316;2023-04-26T11:20:37;93538.88;;;15.80;47.73
9774;BME280;4926;42.670;23.316;2023-04-26T11:23:06;93522.09;;;15.83;46.63
9774;BME280;4926;42.670;23.316;2023-04-26T11:25:33;93529.56;;;16.05;46.92
9774;BME280;4926;42.670;23.316;2023-04-26T11:28:01;93528.16;;;16.11;46.90
9774;BME280;4926;42.670;23.316;2023-04-26T11:30:30;93533.47;;;16.23;46.92
9774;BME280;4926;42.670;23.316;2023-04-26T11:32:58;93522.50;;;15.85;46.63
9774;BME280;4926;42.670;23.316;2023-04-26T11:35:27;93533.69;;;15.87;47.14
9774;BME280;4926;42.670;23.316;2023-04-26T11:37:57;93541.84;;;16.06;46.88
9774;BME280;4926;42.670;23.316;2023-04-26T11:40:27;93535.59;;;15.87;45.96
9774;BME280;4926;42.670;23.316;2023-04-26T11:42:58;93532.47;;;15.69;46.59
9774;BME280;4926;42.670;23.316;2023-04-26T11:45:24;93527.19;;;15.73;46.28
9774;BME280;4926;42.670;23.316;2023-04-26T11:47:53;93540.72;;;15.64;47.23
9774;BME280;4926;42.670;23.316;2023-04-26T11:50:20;93541.00;;;15.75;47.22
9774;BME280;4926;42.670;23.316;2023-04-26T11:52:54;93537.06;;;15.84;46.48
9774;BME280;4926;42.670;23.316;2023-04-26T11:55:27;93530.44;;;15.94;46.14
9774;BME280;4926;42.670;23.316;2023-04-26T11:57:55;93531.03;;;16.18;45.55
9774;BME280;4926;42.670;23.316;2023-04-26T12:00:22;93513.00;;;16.34;44.94
9774;BME280;4926;42.670;23.316;2023-04-26T12:02:49;93523.50;;;16.39;45.32
9774;BME280;4926;42.670;23.316;2023-04-26T12:05:22;93510.94;;;16.43;44.90
9774;BME280;4926;42.670;23.316;2023-04-26T12:07:58;93521.69;;;16.43;44.94
9774;BME280;4926;42.670;23.316;2023-04-26T12:10:27;93517.72;;;16.37;44.99
9774;BME280;4926;42.670;23.316;2023-04-26T12:12:54;93509.75;;;16.91;45.31
9774;BME280;4926;42.670;23.316;2023-04-26T12:15:22;93506.47;;;17.17;44.49
9774;BME280;4926;42.670;23.316;2023-04-26T12:17:54;93510.66;;;17.14;44.48
9774;BME280;4926;42.670;23.316;2023-04-26T12:20:33;93514.03;;;16.77;44.81
9774;BME280;4926;42.670;23.316;2023-04-26T12:23:01;93510.31;;;16.81;44.83
9774;BME280;4926;42.670;23.316;2023-04-26T12:25:35;93513.88;;;16.38;45.17
9774;BME280;4926;42.670;23.316;2023-04-26T12:28:03;93516.50;;;16.19;45.75
9774;BME280;4926;42.670;23.316;2023-04-26T12:30:32;93519.44;;;16.45;45.34
9774;BME280;4926;42.670;23.316;2023-04-26T12:32:59;93509.81;;;16.13;45.29
9774;BME280;4926;42.670;23.316;2023-04-26T12:35:26;93520.38;;;16.06;45.38
9774;BME280;4926;42.670;23.316;2023-04-26T12:37:54;93507.66;;;16.03;45.96
9774;BME280;4926;42.670;23.316;2023-04-26T12:40:21;93510.69;;;16.33;45.67
9774;BME280;4926;42.670;23.316;2023-04-26T12:42:51;93499.31;;;16.39;44.46
9774;BME280;4926;42.670;23.316;2023-04-26T12:45:21;93499.31;;;16.39;44.73
9774;BME280;4926;42.670;23.316;2023-04-26T12:47:48;93506.72;;;16.58;44.97
9774;BME280;4926;42.670;23.316;2023-04-26T12:50:18;93505.47;;;16.55;45.27
9774;BME280;4926;42.670;23.316;2023-04-26T12:52:45;93519.88;;;16.63;45.49
9774;BME280;4926;42.670;23.316;2023-04-26T12:55:14;93496.31;;;16.56;45.66
9774;BME280;4926;42.670;23.316;2023-04-26T12:57:44;93506.78;;;16.30;45.90
9774;BME280;4926;42.670;23.316;2023-04-26T13:00:16;93490.84;;;16.22;45.06
9774;BME280;4926;42.670;23.316;2023-04-26T13:02:43;93511.81;;;16.16;44.23
9774;BME280;4926;42.670;23.316;2023-04-26T13:05:11;93506.50;;;15.89;45.45
9774;BME280;4926;42.670;23.316;2023-04-26T13:07:43;93534.06;;;15.58;47.14
9774;BME280;4926;42.670;23.316;2023-04-26T13:10:10;93535.41;;;15.52;47.77
9774;BME280;4926;42.670;23.316;2023-04-26T13:12:38;93527.41;;;15.40;48.25
9774;BME280;4926;42.670;23.316;2023-04-26T13:15:06;93548.63;;;15.05;48.48
9774;BME280;4926;42.670;23.316;2023-04-26T13:17:34;93552.34;;;14.89;48.11
9774;BME280;4926;42.670;23.316;2023-04-26T13:20:02;93562.19;;;14.61;49.05